createdAt,value
2019-03-01T00:02:02.478Z,18.73
2019-03-01T00:04:36.980Z,20.67
2019-03-01T00:07:11.442Z,19.07
2019-03-01T00:09:45.795Z,18.30
2019-03-01T00:12:20.438Z,18.83
2019-03-01T00:14:55.037Z,18.47
2019-03-01T00:17:30.006Z,18.73
2019-03-01T00:20:04.538Z,18.97
2019-03-01T00:22:38.704Z,18.20
2019-03-01T00:25:12.783Z,17.27
2019-03-01T00:27:46.942Z,20.27
2019-03-01T00:30:20.827Z,18.10
2019-03-01T00:32:55.451Z,17.97
2019-03-01T00:35:27.570Z,17.53
2019-03-01T00:38:01.980Z,18.87
2019-03-01T00:40:34.616Z,17.27
2019-03-01T00:43:08.954Z,17.63
2019-03-01T00:45:40.741Z,17.10
2019-03-01T00:48:12.002Z,16.87
2019-03-01T00:50:43.258Z,17.73
2019-03-01T00:53:14.583Z,16.73
2019-03-01T00:55:45.351Z,16.93
2019-03-01T00:58:17.975Z,17.30
2019-03-01T01:00:49.840Z,15.70
2019-03-01T01:03:20.604Z,17.27
2019-03-01T01:05:51.465Z,17.27
2019-03-01T01:08:22.351Z,15.83
2019-03-01T01:10:53.563Z,16.40
2019-03-01T01:13:24.506Z,17.23
2019-03-01T01:15:55.656Z,15.93
2019-03-01T01:18:26.304Z,16.13
2019-03-01T01:20:57.034Z,14.67
2019-03-01T01:23:27.923Z,16.23
2019-03-01T01:25:58.536Z,15.87
2019-03-01T01:28:29.615Z,15.43
2019-03-01T01:31:00.573Z,16.67
2019-03-01T01:33:31.722Z,16.00
2019-03-01T01:36:02.553Z,18.40
2019-03-01T01:38:33.746Z,18.43
2019-03-01T01:41:05.006Z,18.00
2019-03-01T01:43:36.460Z,19.57
2019-03-01T01:46:11.229Z,20.70
2019-03-01T01:48:42.735Z,18.83
2019-03-01T01:51:13.690Z,20.63
2019-03-01T01:53:45.056Z,17.20
2019-03-01T01:56:15.847Z,18.30
2019-03-01T01:58:47.250Z,17.07
2019-03-01T02:01:18.128Z,16.57
2019-03-01T02:03:49.162Z,15.07
2019-03-01T02:06:20.010Z,16.60
2019-03-01T02:08:50.924Z,16.00
2019-03-01T02:11:22.070Z,15.23
2019-03-01T02:13:53.499Z,15.90
2019-03-01T02:16:24.773Z,15.67
2019-03-01T02:18:57.953Z,15.33
2019-03-01T02:21:28.724Z,15.33
2019-03-01T02:23:59.771Z,14.53
2019-03-01T02:26:30.495Z,15.30
2019-03-01T02:29:01.431Z,14.70
2019-03-01T02:31:32.778Z,14.77
2019-03-01T02:34:04.151Z,15.33
2019-03-01T02:36:35.120Z,14.57
2019-03-01T02:39:06.230Z,14.17
2019-03-01T02:41:38.447Z,14.63
2019-03-01T02:44:09.648Z,14.93
2019-03-01T02:46:41.452Z,14.40
2019-03-01T02:49:12.353Z,15.63
2019-03-01T02:51:43.430Z,14.60
2019-03-01T02:54:14.647Z,15.97
2019-03-01T02:56:45.807Z,14.93
2019-03-01T02:59:16.865Z,13.97
2019-03-01T03:01:47.649Z,14.75
2019-03-01T03:04:18.426Z,15.60
2019-03-01T03:06:50.934Z,14.93
2019-03-01T03:09:22.330Z,15.60
2019-03-01T03:11:53.064Z,14.63
2019-03-01T03:14:23.978Z,14.70
2019-03-01T03:16:55.108Z,15.13
2019-03-01T03:19:26.337Z,16.20
2019-03-01T03:21:57.417Z,16.87
2019-03-01T03:24:28.586Z,20.03
2019-03-01T03:27:00.325Z,18.57
2019-03-01T03:29:31.761Z,15.67
2019-03-01T03:32:03.036Z,17.03
2019-03-01T03:34:34.018Z,18.47
2019-03-01T03:37:05.157Z,19.17
2019-03-01T03:39:36.297Z,17.93
2019-03-01T03:42:07.063Z,17.03
2019-03-01T03:44:37.629Z,15.40
2019-03-01T03:49:41.043Z,17.03
2019-03-01T03:52:11.756Z,17.03
2019-03-01T03:54:42.711Z,21.13
2019-03-01T03:57:13.969Z,20.10
2019-03-01T03:59:44.687Z,17.50
2019-03-01T04:02:15.671Z,19.10
2019-03-01T04:04:46.507Z,18.33
2019-03-01T04:07:17.875Z,17.47
2019-03-01T04:09:48.935Z,19.47
2019-03-01T04:12:19.570Z,20.20
2019-03-01T04:14:50.730Z,23.20
2019-03-01T04:17:21.803Z,25.93
2019-03-01T04:19:52.891Z,24.80
2019-03-01T04:22:24.196Z,21.73
2019-03-01T04:24:54.749Z,22.13
2019-03-01T04:27:25.354Z,21.10
2019-03-01T04:29:56.568Z,22.47
2019-03-01T04:32:27.442Z,21.60
2019-03-01T04:34:58.512Z,18.30
2019-03-01T04:37:29.578Z,18.90
2019-03-01T04:40:00.913Z,18.83
2019-03-01T04:42:32.162Z,19.73
2019-03-01T04:45:02.948Z,20.40
2019-03-01T04:47:34.391Z,17.57
2019-03-01T04:50:08.005Z,18.17
2019-03-01T04:52:38.628Z,19.63
2019-03-01T04:55:13.038Z,19.20
2019-03-01T04:57:44.708Z,19.07
2019-03-01T05:00:19.751Z,19.57
2019-03-01T05:02:50.636Z,41.40
2019-03-01T05:05:21.283Z,51.57
2019-03-01T05:07:52.310Z,25.60
2019-03-01T05:10:23.498Z,24.03
2019-03-01T05:12:54.901Z,27.97
2019-03-01T05:15:25.833Z,21.37
2019-03-01T05:17:56.601Z,22.23
2019-03-01T05:20:29.806Z,20.97
2019-03-01T05:23:00.661Z,20.07
2019-03-01T05:25:31.706Z,22.20
2019-03-01T05:28:02.581Z,20.03
2019-03-01T05:30:33.649Z,21.63
2019-03-01T05:33:04.699Z,21.33
2019-03-01T05:35:35.377Z,19.23
2019-03-01T05:38:07.053Z,19.80
2019-03-01T05:40:37.840Z,20.47
2019-03-01T05:43:08.527Z,21.37
2019-03-01T05:45:39.365Z,21.93
2019-03-01T05:48:10.586Z,18.77
2019-03-01T05:50:46.318Z,19.63
2019-03-01T05:53:17.315Z,21.00
2019-03-01T05:55:48.476Z,19.17
2019-03-01T05:58:19.569Z,19.97
2019-03-01T06:00:51.722Z,20.37
2019-03-01T06:03:23.965Z,19.73
2019-03-01T06:05:55.069Z,19.87
2019-03-01T06:08:29.097Z,20.77
2019-03-01T06:11:02.000Z,22.87
2019-03-01T06:13:36.226Z,20.63
2019-03-01T06:16:10.616Z,20.87
2019-03-01T06:18:43.522Z,24.37
2019-03-01T06:21:15.832Z,23.67
2019-03-01T06:23:50.064Z,26.30
2019-03-01T06:26:24.151Z,24.47
2019-03-01T06:28:58.399Z,23.77
2019-03-01T06:31:32.403Z,23.67
2019-03-01T06:34:06.808Z,21.53
2019-03-01T06:36:40.603Z,19.30
2019-03-01T06:39:14.776Z,19.83
2019-03-01T06:41:49.173Z,20.30
2019-03-01T06:44:22.191Z,22.97
2019-03-01T06:47:00.324Z,20.57
2019-03-01T06:49:37.920Z,19.57
2019-03-01T06:52:10.017Z,18.40
2019-03-01T06:54:41.598Z,18.57
2019-03-01T06:57:12.975Z,16.80
2019-03-01T06:59:45.614Z,17.57
2019-03-01T07:02:18.119Z,16.27
2019-03-01T07:04:49.250Z,18.60
2019-03-01T07:07:20.944Z,17.67
2019-03-01T07:09:51.999Z,18.73
2019-03-01T07:12:23.145Z,18.63
2019-03-01T07:14:54.152Z,15.93
2019-03-01T07:17:25.063Z,18.17
2019-03-01T07:19:56.149Z,17.77
2019-03-01T07:22:27.209Z,16.73
2019-03-01T07:24:58.603Z,17.93
2019-03-01T07:27:29.661Z,18.90
2019-03-01T07:30:00.637Z,19.17
2019-03-01T07:32:32.638Z,22.03
2019-03-01T07:35:03.907Z,18.30
2019-03-01T07:37:34.955Z,17.47
2019-03-01T07:40:08.721Z,16.47
2019-03-01T07:42:39.512Z,32.97
2019-03-01T07:45:12.473Z,53.00
2019-03-01T07:47:45.151Z,48.33
2019-03-01T07:50:16.348Z,79.17
2019-03-01T07:52:47.730Z,27.03
2019-03-01T07:55:18.802Z,23.83
2019-03-01T07:57:50.664Z,27.97
2019-03-01T08:00:21.991Z,27.50
2019-03-01T08:02:53.479Z,17.03
2019-03-01T08:05:24.723Z,18.93
2019-03-01T08:07:56.605Z,19.07
2019-03-01T08:10:29.229Z,17.63
2019-03-01T08:13:01.482Z,15.33
2019-03-01T08:15:32.618Z,14.70
2019-03-01T08:18:04.741Z,14.63
2019-03-01T08:20:36.889Z,13.95
2019-03-01T08:23:08.176Z,15.33
2019-03-01T08:25:39.159Z,15.60
2019-03-01T08:28:10.202Z,14.60
2019-03-01T08:30:42.502Z,14.93
2019-03-01T08:33:15.202Z,15.53
2019-03-01T08:35:46.621Z,15.57
2019-03-01T08:38:18.148Z,14.70
2019-03-01T08:40:49.893Z,15.73
2019-03-01T08:43:22.040Z,15.10
2019-03-01T08:45:53.767Z,16.07
2019-03-01T08:48:24.838Z,14.30
2019-03-01T08:50:57.215Z,13.93
2019-03-01T08:53:28.413Z,13.83
2019-03-01T08:56:00.669Z,14.80
2019-03-01T08:58:32.144Z,15.97
2019-03-01T09:01:08.373Z,15.13
2019-03-01T09:03:43.301Z,17.03
2019-03-01T09:06:15.108Z,14.13
2019-03-01T09:08:46.906Z,14.70
2019-03-01T09:11:18.937Z,14.37
2019-03-01T09:13:51.568Z,13.20
2019-03-01T09:16:23.051Z,14.30
2019-03-01T09:18:54.767Z,12.90
2019-03-01T09:21:25.967Z,14.03
2019-03-01T09:23:57.637Z,13.67
2019-03-01T09:26:29.034Z,15.07
2019-03-01T09:29:00.504Z,16.17
2019-03-01T09:31:31.955Z,15.60
2019-03-01T09:34:03.134Z,14.60
2019-03-01T09:36:35.433Z,15.63
2019-03-01T09:39:08.928Z,15.60
2019-03-01T09:41:41.645Z,15.97
2019-03-01T09:44:14.186Z,15.77
2019-03-01T09:46:46.105Z,14.57
2019-03-01T09:49:18.084Z,14.27
2019-03-01T09:51:50.136Z,13.53
2019-03-01T09:54:21.652Z,14.97
2019-03-01T09:56:53.100Z,14.73
2019-03-01T09:59:24.446Z,45.10
2019-03-01T10:01:56.198Z,18.50
2019-03-01T10:04:27.711Z,18.03
2019-03-01T10:06:59.853Z,15.47
2019-03-01T10:09:32.430Z,15.73
2019-03-01T10:12:03.969Z,14.67
2019-03-01T10:14:35.049Z,15.00
2019-03-01T10:17:05.995Z,17.17
2019-03-01T10:19:37.116Z,13.97
2019-03-01T10:22:08.385Z,15.77
2019-03-01T10:24:39.875Z,13.97
2019-03-01T10:27:11.119Z,16.27
2019-03-01T10:29:42.375Z,15.60
2019-03-01T10:32:13.761Z,16.40
2019-03-01T10:34:44.989Z,14.27
2019-03-01T10:37:16.291Z,14.10
2019-03-01T10:39:55.226Z,12.27
2019-03-01T10:42:20.723Z,12.83
2019-03-01T10:44:52.023Z,12.40
2019-03-01T10:47:23.317Z,13.50
2019-03-01T10:49:54.591Z,14.77
2019-03-01T10:52:26.173Z,12.43
2019-03-01T10:54:58.462Z,15.50
2019-03-01T10:57:30.519Z,14.17
2019-03-01T11:00:01.570Z,12.97
2019-03-01T11:02:34.509Z,14.20
2019-03-01T11:05:07.031Z,18.50
2019-03-01T11:07:39.129Z,16.33
2019-03-01T11:10:15.349Z,15.23
2019-03-01T11:12:46.614Z,14.87
2019-03-01T11:15:18.249Z,13.57
2019-03-01T11:17:49.443Z,12.60
2019-03-01T11:20:21.579Z,12.90
2019-03-01T11:22:52.811Z,14.97
2019-03-01T11:25:26.229Z,15.50
2019-03-01T11:27:58.236Z,14.37
2019-03-01T11:30:32.487Z,14.20
2019-03-01T11:33:03.951Z,12.83
2019-03-01T11:35:35.246Z,13.03
2019-03-01T11:38:07.030Z,14.23
2019-03-01T11:40:40.028Z,14.07
2019-03-01T11:43:10.887Z,13.97
2019-03-01T11:45:41.800Z,12.90
2019-03-01T11:48:14.183Z,14.93
2019-03-01T11:50:45.108Z,13.70
2019-03-01T11:53:18.389Z,14.73
2019-03-01T11:55:49.473Z,13.40
2019-03-01T11:58:20.272Z,14.10
2019-03-01T12:00:52.412Z,12.83
2019-03-01T12:03:23.878Z,11.87
2019-03-01T12:05:54.769Z,12.53
2019-03-01T12:08:26.027Z,14.73
2019-03-01T12:10:57.632Z,11.73
2019-03-01T12:13:28.664Z,15.40
2019-03-01T12:16:01.241Z,15.30
2019-03-01T12:18:32.671Z,13.90
2019-03-01T12:21:04.005Z,15.30
2019-03-01T12:23:35.961Z,16.20
2019-03-01T12:26:07.246Z,16.67
2019-03-01T12:28:38.254Z,15.73
2019-03-01T12:31:09.822Z,17.63
2019-03-01T12:33:40.976Z,18.27
2019-03-01T12:36:12.117Z,19.33
2019-03-01T12:38:43.136Z,18.20
2019-03-01T12:41:13.968Z,17.97
2019-03-01T12:43:45.430Z,16.57
2019-03-01T12:46:16.439Z,19.40
2019-03-01T12:48:47.972Z,18.43
2019-03-01T12:51:19.218Z,16.97
2019-03-01T12:53:52.987Z,18.33
2019-03-01T12:56:24.890Z,17.40
2019-03-01T12:58:56.637Z,17.60
2019-03-01T13:01:27.723Z,19.37
2019-03-01T13:03:58.816Z,20.80
2019-03-01T13:06:30.175Z,22.40
2019-03-01T13:09:01.585Z,21.60
2019-03-01T13:11:34.208Z,18.57
2019-03-01T13:14:05.315Z,18.73
2019-03-01T13:16:36.432Z,18.20
2019-03-01T13:19:07.399Z,19.10
2019-03-01T13:21:39.638Z,17.30
2019-03-01T13:24:12.584Z,16.60
2019-03-01T13:26:43.570Z,17.17
2019-03-01T13:29:14.608Z,17.17
2019-03-01T13:31:47.114Z,17.27
2019-03-01T13:34:18.768Z,17.13
2019-03-01T13:36:50.554Z,16.30
2019-03-01T13:39:21.668Z,16.77
2019-03-01T13:41:52.677Z,17.10
2019-03-01T13:44:23.946Z,21.43
2019-03-01T13:46:55.209Z,17.37
2019-03-01T13:49:30.359Z,17.23
2019-03-01T13:52:00.042Z,26.70
2019-03-01T13:54:31.638Z,19.67
2019-03-01T13:57:02.559Z,16.70
2019-03-01T13:59:33.572Z,26.60
2019-03-01T14:02:07.568Z,20.03
2019-03-01T14:04:40.272Z,23.93
2019-03-01T14:07:11.111Z,15.13
2019-03-01T14:09:41.821Z,16.37
2019-03-01T14:12:13.103Z,17.73
2019-03-01T14:14:44.602Z,18.30
2019-03-01T14:17:16.176Z,17.87
2019-03-01T14:19:47.168Z,30.30
2019-03-01T14:22:18.255Z,22.40
2019-03-01T14:24:49.245Z,19.87
2019-03-01T14:27:20.555Z,18.70
2019-03-01T14:29:53.679Z,17.63
2019-03-01T14:32:23.832Z,17.27
2019-03-01T14:34:55.304Z,18.23
2019-03-01T14:37:26.200Z,16.73
2019-03-01T14:39:59.048Z,14.93
2019-03-01T14:42:30.911Z,17.30
2019-03-01T14:45:02.133Z,17.67
2019-03-01T14:47:34.250Z,15.93
2019-03-01T14:50:08.709Z,17.47
2019-03-01T14:52:39.601Z,21.47
2019-03-01T14:55:14.512Z,25.03
2019-03-01T14:57:48.812Z,21.07
2019-03-01T15:00:23.357Z,19.30
2019-03-01T15:02:57.867Z,21.57
2019-03-01T15:05:29.151Z,22.23
2019-03-01T15:08:03.153Z,20.73
2019-03-01T15:10:35.454Z,22.87
2019-03-01T15:13:06.558Z,22.37
2019-03-01T15:15:37.445Z,20.63
2019-03-01T15:18:08.838Z,31.57
2019-03-01T15:20:40.571Z,26.27
2019-03-01T15:23:11.739Z,29.23
2019-03-01T15:25:47.462Z,30.93
2019-03-01T15:28:16.583Z,30.10
2019-03-01T15:30:47.994Z,30.93
2019-03-01T15:33:20.527Z,29.70
2019-03-01T15:35:53.021Z,30.77
2019-03-01T15:38:27.606Z,22.80
2019-03-01T15:40:57.535Z,19.80
2019-03-01T15:43:31.358Z,19.00
2019-03-01T15:46:14.427Z,23.50
2019-03-01T15:48:51.584Z,19.77
2019-03-01T15:51:23.775Z,18.37
2019-03-01T15:53:57.688Z,17.33
2019-03-01T15:56:28.202Z,17.07
2019-03-01T15:59:00.223Z,19.20
2019-03-01T16:01:30.808Z,17.83
2019-03-01T16:04:01.834Z,17.37
2019-03-01T16:06:33.107Z,17.67
2019-03-01T16:09:05.938Z,17.33
2019-03-01T16:11:37.807Z,18.67
2019-03-01T16:14:09.227Z,18.87
2019-03-01T16:16:41.361Z,21.00
2019-03-01T16:19:13.869Z,25.33
2019-03-01T16:21:44.681Z,26.13
2019-03-01T16:24:15.831Z,21.83
2019-03-01T16:26:46.829Z,21.47
2019-03-01T16:29:17.773Z,20.27
2019-03-01T16:31:48.992Z,21.23
2019-03-01T16:34:22.208Z,23.50
2019-03-01T16:36:53.470Z,22.90
2019-03-01T16:39:24.832Z,30.77
2019-03-01T16:41:55.704Z,32.97
2019-03-01T16:44:27.089Z,33.53
2019-03-01T16:46:58.040Z,37.37
2019-03-01T16:49:28.812Z,35.77
2019-03-01T16:52:00.064Z,36.60
2019-03-01T16:54:32.051Z,53.00
2019-03-01T16:57:03.390Z,48.53
2019-03-01T16:59:34.536Z,60.47
2019-03-01T17:02:06.650Z,32.43
2019-03-01T17:04:38.830Z,63.83
2019-03-01T17:07:10.341Z,104.57
2019-03-01T17:09:41.202Z,76.13
2019-03-01T17:12:16.662Z,63.97
2019-03-01T17:14:46.653Z,43.57
2019-03-01T17:17:20.585Z,44.10
2019-03-01T17:19:51.522Z,37.90
2019-03-01T17:22:23.204Z,55.20
2019-03-01T17:24:55.130Z,92.60
2019-03-01T17:27:29.135Z,130.03
2019-03-01T17:29:59.811Z,95.03
2019-03-01T17:32:30.773Z,44.87
2019-03-01T17:35:18.286Z,55.87
2019-03-01T17:38:11.589Z,82.53
2019-03-01T17:41:06.331Z,49.60
2019-03-01T17:43:40.962Z,51.70
2019-03-01T17:46:11.885Z,55.03
2019-03-01T17:48:42.611Z,39.27
2019-03-01T17:51:13.212Z,32.17
2019-03-01T17:53:46.408Z,34.47
2019-03-01T17:56:18.619Z,35.10
2019-03-01T17:58:49.724Z,36.50
2019-03-01T18:01:20.964Z,40.70
2019-03-01T18:03:51.843Z,31.10
2019-03-01T18:06:22.644Z,48.00
2019-03-01T18:09:04.242Z,100.17
2019-03-01T18:12:06.404Z,84.20
2019-03-01T18:14:49.764Z,63.40
2019-03-01T18:17:21.124Z,52.73
2019-03-01T18:19:52.232Z,48.33
2019-03-01T18:22:26.422Z,51.07
2019-03-01T18:24:58.681Z,44.90
2019-03-01T18:27:30.091Z,42.90
2019-03-01T18:30:05.494Z,36.00
2019-03-01T18:32:37.782Z,36.70
2019-03-01T18:35:11.400Z,32.10
2019-03-01T18:37:44.363Z,30.23
2019-03-01T18:40:16.872Z,32.43
2019-03-01T18:42:49.335Z,38.67
2019-03-01T18:45:22.660Z,35.27
2019-03-01T18:47:55.383Z,39.27
2019-03-01T18:50:31.183Z,38.87
2019-03-01T18:53:04.596Z,46.70
2019-03-01T18:55:35.463Z,44.03
2019-03-01T18:58:10.442Z,43.80
2019-03-01T19:00:41.941Z,35.10
2019-03-01T19:03:13.935Z,34.03
2019-03-01T19:05:44.444Z,33.43
2019-03-01T19:08:16.246Z,34.90
2019-03-01T19:10:53.939Z,39.70
2019-03-01T19:13:24.307Z,48.67
2019-03-01T19:16:00.732Z,49.73
2019-03-01T19:18:31.828Z,38.70
2019-03-01T19:21:03.768Z,35.57
2019-03-01T19:23:35.137Z,42.27
2019-03-01T19:26:05.712Z,40.97
2019-03-01T19:28:36.175Z,37.80
2019-03-01T19:31:06.664Z,40.27
2019-03-01T19:33:37.864Z,37.37
2019-03-01T19:36:09.424Z,43.90
2019-03-01T19:38:40.793Z,44.40
2019-03-01T19:41:12.188Z,37.67
2019-03-01T19:43:45.365Z,42.33
2019-03-01T19:46:15.651Z,66.53
2019-03-01T19:48:47.118Z,88.57
2019-03-01T19:51:17.732Z,64.57
2019-03-01T19:53:49.913Z,55.00
2019-03-01T19:56:25.069Z,49.80
2019-03-01T19:58:52.989Z,48.60
2019-03-01T20:01:23.439Z,46.07
2019-03-01T20:03:54.070Z,45.43
2019-03-01T20:06:24.667Z,37.50
2019-03-01T20:08:55.159Z,34.70
2019-03-01T20:11:26.660Z,38.63
2019-03-01T20:14:01.663Z,40.27
2019-03-01T20:16:34.132Z,40.80
2019-03-01T20:19:07.530Z,42.80
2019-03-01T20:21:41.389Z,41.93
2019-03-01T20:24:14.820Z,41.07
2019-03-01T20:26:46.845Z,40.07
2019-03-01T20:29:17.493Z,40.67
2019-03-01T20:31:47.890Z,38.10
2019-03-01T20:34:18.263Z,46.50
2019-03-01T20:36:49.579Z,38.17
2019-03-01T20:39:20.870Z,39.47
2019-03-01T20:41:51.427Z,38.23
2019-03-01T20:44:22.855Z,40.13
2019-03-01T20:46:54.004Z,41.63
2019-03-01T20:49:24.661Z,37.70
2019-03-01T20:51:55.114Z,50.77
2019-03-01T20:54:26.998Z,40.03
2019-03-01T20:56:57.735Z,37.70
2019-03-01T20:59:28.104Z,35.97
2019-03-01T21:01:58.560Z,34.57
2019-03-01T21:04:29.209Z,32.13
2019-03-01T21:06:59.755Z,34.57
2019-03-01T21:09:31.207Z,32.73
2019-03-01T21:12:01.927Z,30.37
2019-03-01T21:14:32.422Z,33.03
2019-03-01T21:17:03.877Z,37.63
2019-03-01T21:19:34.513Z,36.17
2019-03-01T21:22:05.566Z,40.77
2019-03-01T21:24:36.116Z,45.03
2019-03-01T21:27:06.631Z,43.90
2019-03-01T21:29:38.008Z,52.43
2019-03-01T21:32:11.773Z,58.47
2019-03-01T21:34:42.077Z,65.10
2019-03-01T21:37:12.969Z,68.77
2019-03-01T21:39:43.992Z,90.63
2019-03-01T21:42:16.962Z,93.40
2019-03-01T21:44:47.563Z,100.70
2019-03-01T21:47:18.973Z,97.23
2019-03-01T21:49:50.918Z,95.17
2019-03-01T21:52:21.686Z,87.73
2019-03-01T21:54:53.334Z,81.83
2019-03-01T21:57:27.632Z,82.40
2019-03-01T21:59:57.631Z,78.60
2019-03-01T22:02:28.841Z,80.33
2019-03-01T22:05:00.568Z,85.80
2019-03-01T22:07:33.691Z,84.17
2019-03-01T22:10:07.853Z,88.53
2019-03-01T22:12:39.047Z,84.53
2019-03-01T22:15:13.724Z,81.03
2019-03-01T22:17:45.383Z,79.53
2019-03-01T22:20:17.180Z,76.53
2019-03-01T22:22:48.316Z,81.57
2019-03-01T22:25:19.376Z,80.87
2019-03-01T22:27:51.653Z,80.40
2019-03-01T22:30:27.285Z,76.67
2019-03-01T22:32:58.091Z,74.30
2019-03-01T22:35:28.912Z,68.63
2019-03-01T22:38:03.030Z,70.13
2019-03-01T22:40:32.941Z,72.30
2019-03-01T22:43:03.824Z,69.00
2019-03-01T22:45:36.089Z,67.17
2019-03-01T22:48:08.433Z,64.90
2019-03-01T22:50:42.582Z,65.93
2019-03-01T22:53:13.557Z,64.50
2019-03-01T22:55:44.572Z,60.03
2019-03-01T22:58:16.173Z,64.50
2019-03-01T23:00:54.463Z,66.23
2019-03-01T23:03:25.204Z,66.23
2019-03-01T23:05:55.900Z,66.93
2019-03-01T23:08:26.902Z,68.77
2019-03-01T23:10:57.918Z,72.60
2019-03-01T23:13:29.192Z,68.37
2019-03-01T23:16:00.621Z,71.37
2019-03-01T23:18:31.900Z,66.70
2019-03-01T23:21:02.635Z,64.43
2019-03-01T23:23:33.863Z,64.23
2019-03-01T23:26:04.772Z,67.37
2019-03-01T23:28:36.043Z,64.63
2019-03-01T23:31:07.161Z,64.60
2019-03-01T23:33:38.371Z,66.40
2019-03-01T23:36:11.536Z,63.03
2019-03-01T23:38:42.480Z,63.73
2019-03-01T23:41:13.873Z,61.30
2019-03-01T23:43:45.469Z,56.43
2019-03-01T23:46:16.642Z,56.30
2019-03-01T23:48:48.910Z,43.50
2019-03-01T23:51:19.979Z,34.93
2019-03-01T23:53:51.362Z,34.33
2019-03-01T23:56:22.109Z,32.60
2019-03-01T23:58:53.960Z,29.43
